Time;durP1;ratioP1;P1;durP2;ratioP2;P2;SDS_P1;SDS_P2;PMS_P1;PMS_P2;Temp;Humidity;BMP_temperature;BMP_pressure;BME280_temperature;BME280_humidity;BME280_pressure;Samples;Min_cycle;Max_cycle;Signal;HPM_P1;HPM_P2
2021/12/28 00:01:30;;;;;;;62.40;25.40;;;;;;;-5.36;88.14;97942.96;102430;1324;22674;-79
2021/12/28 00:03:57;;;;;;;57.10;25.20;;;;;;;-5.32;88.25;97931.20;102274;1332;138560;-79
2021/12/28 00:06:23;;;;;;;53.60;22.90;;;;;;;-5.29;88.30;97922.77;102610;1327;25594;-79
2021/12/28 00:08:50;;;;;;;61.40;24.80;;;;;;;-5.26;88.49;97934.65;102275;1330;138206;-80
2021/12/28 00:11:16;;;;;;;58.40;24.90;;;;;;;-5.24;88.42;97933.35;102654;1333;25318;-80
2021/12/28 00:13:44;;;;;;;62.90;24.40;;;;;;;-5.24;88.40;97919.75;102283;1324;733581;-79
2021/12/28 00:18:43;;;;;;;59.60;24.00;;;;;;;-5.22;87.93;97929.68;102698;1324;24241;-79
2021/12/28 00:21:09;;;;;;;56.00;25.50;;;;;;;-5.20;88.37;97918.51;102684;1331;139153;-79
2021/12/28 00:23:40;;;;;;;60.50;22.90;;;;;;;-5.18;88.18;97923.05;102659;1327;22832;-80
2021/12/28 00:26:10;;;;;;;55.70;22.10;;;;;;;-5.16;88.29;97928.09;102529;1331;22702;-79
2021/12/28 00:28:37;;;;;;;55.90;24.80;;;;;;;-5.15;88.43;97931.00;102545;1327;137937;-79
2021/12/28 00:31:05;;;;;;;60.80;25.10;;;;;;;-5.17;88.05;97928.61;102522;1332;22608;-79
2021/12/28 00:33:32;;;;;;;58.80;25.60;;;;;;;-5.19;88.07;97935.18;102611;1329;138552;-80
2021/12/28 00:35:58;;;;;;;53.20;24.70;;;;;;;-5.22;88.33;97929.58;102450;1332;24221;-79
2021/12/28 00:38:26;;;;;;;66.90;26.30;;;;;;;-5.20;88.25;97928.36;102028;1330;22618;-79
2021/12/28 00:41:00;;;;;;;55.00;22.50;;;;;;;-5.20;88.32;97929.92;102630;1324;138932;-79
2021/12/28 00:43:27;;;;;;;51.00;21.50;;;;;;;-5.19;88.50;97930.59;102649;1327;30684;-80
2021/12/28 00:45:54;;;;;;;53.20;21.20;;;;;;;-5.16;88.59;97922.84;102491;1333;138881;-79
2021/12/28 00:48:20;;;;;;;59.70;26.80;;;;;;;-5.15;88.31;97920.05;102542;1333;22800;-80
2021/12/28 00:50:48;;;;;;;65.20;24.90;;;;;;;-5.16;88.47;97924.93;102653;1328;22723;-79
2021/12/28 00:53:14;;;;;;;54.40;25.50;;;;;;;-5.15;88.57;97923.40;102344;1332;138326;-79
2021/12/28 00:55:41;;;;;;;59.00;25.20;;;;;;;-5.12;88.42;97922.13;102543;1328;22598;-79
2021/12/28 00:58:07;;;;;;;53.80;20.70;;;;;;;-5.11;88.48;97926.91;102437;1325;138528;-79
2021/12/28 01:00:37;;;;;;;58.40;24.10;;;;;;;-5.10;88.65;97937.10;102358;1332;24275;-79
2021/12/28 01:03:18;;;;;;;60.50;24.00;;;;;;;-5.07;88.63;97935.73;102642;1331;138059;-79
2021/12/28 01:05:45;;;;;;;60.30;24.00;;;;;;;-5.07;88.51;97930.77;102536;1332;22713;-79
2021/12/28 01:08:12;;;;;;;58.00;27.70;;;;;;;-5.09;88.48;97928.17;102282;1331;22757;-79
2021/12/28 01:10:48;;;;;;;62.50;28.60;;;;;;;-5.08;88.94;97934.06;102589;1330;139093;-80
2021/12/28 01:13:14;;;;;;;57.40;23.20;;;;;;;-5.04;88.65;97934.38;102836;1327;25316;-79
2021/12/28 01:15:42;;;;;;;65.00;24.90;;;;;;;-5.02;88.52;97939.99;102669;1327;138402;-79
2021/12/28 01:18:09;;;;;;;58.70;23.10;;;;;;;-5.00;88.63;97931.46;102630;1324;22616;-80
2021/12/28 01:20:39;;;;;;;56.70;24.00;;;;;;;-4.98;88.73;97929.66;102468;1330;23331;-79
2021/12/28 01:23:06;;;;;;;62.50;24.80;;;;;;;-4.96;88.85;97933.48;102549;1331;138279;-79
2021/12/28 01:25:32;;;;;;;59.40;24.80;;;;;;;-4.93;88.72;97931.30;102348;1327;23172;-79
2021/12/28 01:27:58;;;;;;;51.60;21.80;;;;;;;-4.92;88.47;97922.71;102591;1332;138990;-80
2021/12/28 01:30:30;;;;;;;61.10;23.70;;;;;;;-4.90;88.28;97921.96;102650;1327;22603;-80
2021/12/28 01:32:59;;;;;;;56.30;25.10;;;;;;;-4.90;88.51;97920.46;102625;1324;138005;-79
2021/12/28 01:35:28;;;;;;;53.90;20.80;;;;;;;-4.91;88.53;97915.29;102685;1333;22719;-79
2021/12/28 01:37:55;;;;;;;60.40;23.70;;;;;;;-4.91;88.76;97916.02;102536;1324;22577;-80
2021/12/28 01:40:25;;;;;;;65.20;25.60;;;;;;;-4.90;88.61;97911.86;102606;1324;138140;-79
2021/12/28 01:43:12;;;;;;;54.30;23.10;;;;;;;-4.91;88.36;97903.10;102923;1330;24466;-79
2021/12/28 01:45:43;;;;;;;57.60;24.00;;;;;;;-4.89;88.22;97905.49;102444;1331;138995;-79
2021/12/28 01:48:14;;;;;;;50.90;23.00;;;;;;;-4.87;88.37;97894.15;102678;1327;23960;-79
2021/12/28 01:50:42;;;;;;;50.80;22.60;;;;;;;-4.86;88.17;97891.92;102675;1327;25350;-79
2021/12/28 01:53:12;;;;;;;52.70;22.70;;;;;;;-4.85;88.42;97892.86;102601;1327;137971;-79
2021/12/28 01:55:41;;;;;;;50.60;21.70;;;;;;;-4.82;88.76;97890.69;102439;1331;22596;-80
2021/12/28 01:58:07;;;;;;;59.30;24.90;;;;;;;-4.83;88.45;97885.20;102594;1328;137984;-79
2021/12/28 02:00:34;;;;;;;56.70;25.80;;;;;;;-4.82;88.42;97884.41;102565;1324;22741;-80
2021/12/28 02:03:06;;;;;;;49.00;22.50;;;;;;;-4.82;88.16;97881.92;102705;1324;138835;-79
2021/12/28 02:05:33;;;;;;;47.80;22.00;;;;;;;-4.80;88.20;97879.07;102564;1331;23162;-79
2021/12/28 02:07:59;;;;;;;56.80;21.70;;;;;;;-4.80;88.40;97872.49;102678;1332;22597;-79
2021/12/28 02:10:25;;;;;;;51.10;22.60;;;;;;;-4.78;88.27;97869.79;102533;1328;138009;-80
2021/12/28 02:12:51;;;;;;;55.30;21.90;;;;;;;-4.77;88.46;97870.95;102671;1327;23355;-80
2021/12/28 02:15:18;;;;;;;49.00;20.10;;;;;;;-4.79;88.20;97870.08;102728;1324;138430;-80
2021/12/28 02:17:44;;;;;;;50.30;22.70;;;;;;;-4.82;88.21;97869.77;102329;1324;25324;-80
2021/12/28 02:20:14;;;;;;;53.80;24.30;;;;;;;-4.85;88.15;97869.66;102802;1324;25579;-79
2021/12/28 02:22:42;;;;;;;45.90;19.80;;;;;;;-4.81;88.92;97873.36;102657;1324;138162;-80
2021/12/28 02:25:10;;;;;;;48.70;20.90;;;;;;;-4.78;88.51;97872.27;102608;1332;22775;-80
2021/12/28 02:27:37;;;;;;;47.70;20.80;;;;;;;-4.76;88.65;97869.24;102431;1331;138490;-79
2021/12/28 02:30:06;;;;;;;45.90;20.50;;;;;;;-4.76;88.54;97870.68;102645;1333;24249;-80
2021/12/28 02:32:33;;;;;;;;;;;;;;;-4.78;88.28;97874.39;102674;1332;23412;-79
2021/12/28 02:35:00;;;;;;;50.40;21.00;;;;;;;-4.82;88.29;97865.15;102595;1330;124487;-79
2021/12/28 02:37:27;;;;;;;54.90;23.00;;;;;;;-4.86;88.31;97864.50;102681;1330;22633;-80
2021/12/28 02:39:54;;;;;;;47.20;21.70;;;;;;;-4.89;88.42;97866.59;102439;1325;138683;-80
2021/12/28 02:42:23;;;;;;;50.60;23.40;;;;;;;-4.88;88.55;97865.23;102380;1328;25372;-79
2021/12/28 02:44:59;;;;;;;46.80;18.90;;;;;;;-4.86;88.39;97865.07;102590;1333;23553;-80
2021/12/28 02:47:28;;;;;;;45.00;19.10;;;;;;;-4.85;88.53;97865.81;102724;1331;137703;-80
2021/12/28 02:49:54;;;;;;;37.70;17.80;;;;;;;-4.83;88.45;97863.80;102522;1327;25356;-80
2021/12/28 02:52:21;;;;;;;38.60;16.60;;;;;;;-4.83;88.26;97863.33;102633;1327;137724;-79
2021/12/28 02:54:48;;;;;;;43.90;20.30;;;;;;;-4.86;88.42;97856.52;102617;1329;23287;-80
2021/12/28 02:57:14;;;;;;;48.10;20.70;;;;;;;-4.87;88.32;97851.51;102537;1328;138229;-79
2021/12/28 02:59:49;;;;;;;50.30;21.60;;;;;;;-4.88;88.42;97847.35;102578;1324;25373;-79
2021/12/28 03:02:17;;;;;;;41.10;19.30;;;;;;;-4.86;88.74;97845.39;102806;1329;25535;-80
2021/12/28 03:04:43;;;;;;;43.40;20.70;;;;;;;-4.83;88.57;97844.38;102097;1327;138133;-80
2021/12/28 03:07:10;;;;;;;44.40;18.00;;;;;;;-4.81;88.56;97839.02;102309;1324;25378;-80
2021/12/28 03:09:37;;;;;;;40.70;17.50;;;;;;;-4.83;88.21;97838.86;102321;1333;138068;-80
2021/12/28 03:12:04;;;;;;;39.70;17.30;;;;;;;-4.86;88.09;97837.30;102841;1332;22991;-80
2021/12/28 03:14:30;;;;;;;40.40;18.60;;;;;;;-4.88;88.36;97842.39;102387;1333;25350;-80
2021/12/28 03:16:57;;;;;;;41.20;17.60;;;;;;;-4.90;88.16;97843.56;102341;1327;138434;-80
2021/12/28 03:19:26;;;;;;;41.10;19.30;;;;;;;-4.91;88.13;97842.16;102414;1332;22653;-80
2021/12/28 03:21:53;;;;;;;39.40;18.60;;;;;;;-4.89;88.48;97837.19;102308;1333;137778;-80
2021/12/28 03:24:19;;;;;;;35.50;15.80;;;;;;;-4.88;88.06;97839.02;102713;1324;22593;-80
2021/12/28 03:26:46;;;;;;;41.00;17.00;;;;;;;-4.87;88.23;97837.86;102595;1333;22830;-80
2021/12/28 03:29:12;;;;;;;39.60;17.50;;;;;;;-4.86;88.35;97839.89;102303;1327;137854;-79
2021/12/28 03:31:38;;;;;;;37.50;16.80;;;;;;;-4.87;88.30;97831.02;102438;1327;24435;-79
2021/12/28 03:34:05;;;;;;;48.30;19.80;;;;;;;-4.91;88.46;97826.79;102313;1328;138154;-80
2021/12/28 03:36:31;;;;;;;44.00;19.80;;;;;;;-4.91;88.50;97829.24;102446;1329;24340;-82
2021/12/28 03:38:59;;;;;;;43.80;20.60;;;;;;;-4.87;88.72;97831.02;102456;1324;25336;-81
2021/12/28 03:41:26;;;;;;;39.20;19.00;;;;;;;-4.83;88.44;97832.15;102082;1332;138610;-80
2021/12/28 03:43:54;;;;;;;38.60;18.70;;;;;;;-4.79;88.43;97827.48;102611;1332;22607;-81
2021/12/28 03:46:25;;;;;;;43.20;19.20;;;;;;;-4.80;88.11;97827.38;102448;1325;138051;-80
2021/12/28 03:48:52;;;;;;;43.10;18.50;;;;;;;-4.84;87.88;97831.52;102890;1327;22592;-81
2021/12/28 03:51:19;;;;;;;39.50;17.60;;;;;;;-4.87;87.83;97834.01;102304;1330;138736;-79
2021/12/28 03:53:46;;;;;;;48.50;19.50;;;;;;;-4.89;88.27;97834.02;102221;1327;22664;-79
2021/12/28 03:56:14;;;;;;;42.60;19.90;;;;;;;-4.89;88.37;97837.55;102321;1327;25542;-80
2021/12/28 03:58:43;;;;;;;40.70;19.60;;;;;;;-4.89;88.12;97840.54;102349;1327;139125;-80
2021/12/28 04:01:14;;;;;;;43.10;20.00;;;;;;;-4.87;88.09;97832.95;102453;1328;23060;-80
2021/12/28 04:03:40;;;;;;;36.00;16.90;;;;;;;-4.87;88.25;97827.23;102401;1328;138600;-79
2021/12/28 04:06:08;;;;;;;38.10;16.80;;;;;;;-4.86;88.36;97826.45;102608;1331;23573;-79
2021/12/28 04:08:37;;;;;;;33.00;16.20;;;;;;;-4.86;88.31;97830.73;102508;1327;25308;-79
2021/12/28 04:14:04;;;;;;;;;;;;;;;-4.90;88.08;97820.15;102189;1326;22662;-80
2021/12/28 04:16:31;;;;;;;39.40;19.10;;;;;;;-4.94;87.98;97822.50;102304;1327;125408;-79
2021/12/28 04:18:59;;;;;;;43.30;18.40;;;;;;;-4.95;88.09;97828.60;102211;1328;22632;-79
2021/12/28 04:21:25;;;;;;;38.80;18.60;;;;;;;-4.92;88.19;97832.80;102238;1327;139047;-79
2021/12/28 04:23:52;;;;;;;39.10;17.80;;;;;;;-4.90;88.11;97831.52;102678;1327;23487;-79
2021/12/28 04:26:20;;;;;;;42.70;19.70;;;;;;;-4.88;87.94;97830.95;102733;1331;24409;-79
2021/12/28 04:28:46;;;;;;;42.30;19.40;;;;;;;-4.90;87.93;97832.23;102204;1333;137747;-79
2021/12/28 04:31:13;;;;;;;38.80;18.70;;;;;;;-4.93;87.77;97831.99;102750;1327;22632;-79
2021/12/28 04:33:40;;;;;;;39.90;17.90;;;;;;;-4.93;87.90;97826.88;102537;1327;139113;-79
2021/12/28 04:36:13;;;;;;;40.50;19.40;;;;;;;-4.94;87.65;97827.45;102477;1331;23259;-79
2021/12/28 04:38:41;;;;;;;37.40;18.10;;;;;;;-4.93;88.10;97828.30;102668;1325;25430;-79
2021/12/28 04:41:09;;;;;;;39.80;17.70;;;;;;;-4.93;88.69;97829.64;102283;1327;137988;-79
2021/12/28 04:43:36;;;;;;;39.90;16.80;;;;;;;-4.91;88.39;97828.02;102504;1327;22742;-79
2021/12/28 04:46:03;;;;;;;43.30;19.10;;;;;;;-4.93;88.11;97819.02;102646;1333;138477;-79
2021/12/28 04:48:29;;;;;;;36.10;18.40;;;;;;;-4.95;88.11;97814.23;102488;1331;22680;-79
2021/12/28 04:50:56;;;;;;;38.70;19.80;;;;;;;-4.95;88.04;97815.73;101958;1333;22607;-79
2021/12/28 04:53:22;;;;;;;39.70;18.50;;;;;;;-4.95;88.36;97819.04;102009;1327;137770;-79
2021/12/28 04:55:50;;;;;;;37.00;17.00;;;;;;;-4.96;87.83;97815.21;102106;1327;22686;-79
2021/12/28 04:58:18;;;;;;;26.30;13.70;;;;;;;-4.98;88.13;97817.75;101818;1332;138690;-79
2021/12/28 05:00:47;;;;;;;40.10;18.80;;;;;;;-5.00;87.96;97817.57;102146;1327;26521;-79
2021/12/28 05:03:16;;;;;;;38.50;17.70;;;;;;;-5.03;88.19;97819.89;102149;1327;139375;-79
2021/12/28 05:05:45;;;;;;;39.00;18.50;;;;;;;-5.02;88.00;97820.63;102043;1328;22685;-79
2021/12/28 05:08:12;;;;;;;40.60;16.90;;;;;;;-4.99;88.46;97822.45;102372;1332;22800;-79
2021/12/28 05:10:45;;;;;;;41.90;18.70;;;;;;;-4.94;88.63;97824.23;102047;1327;138614;-79
2021/12/28 05:13:12;;;;;;;35.80;16.50;;;;;;;-4.89;88.58;97820.69;102452;1327;23564;-79
2021/12/28 05:15:41;;;;;;;31.60;15.00;;;;;;;-4.86;88.39;97825.31;102233;1330;138311;-79
2021/12/28 05:18:11;;;;;;;38.40;18.80;;;;;;;-4.88;88.01;97825.37;102351;1329;24383;-80
2021/12/28 05:20:38;;;;;;;39.70;17.30;;;;;;;-4.89;87.87;97829.91;102617;1327;24426;-79
2021/12/28 05:23:05;;;;;;;34.80;17.10;;;;;;;-4.90;87.68;97830.39;102621;1327;139257;-79
2021/12/28 05:25:32;;;;;;;36.90;17.40;;;;;;;-4.89;88.21;97826.60;102635;1331;22630;-79
2021/12/28 05:27:59;;;;;;;38.60;17.40;;;;;;;-4.88;88.06;97820.50;102630;1330;137847;-79
2021/12/28 05:30:25;;;;;;;38.00;15.80;;;;;;;-4.88;88.32;97818.80;102426;1331;22625;-79
2021/12/28 05:32:52;;;;;;;37.30;16.00;;;;;;;-4.88;88.31;97821.52;102496;1327;23548;-79
2021/12/28 05:35:18;;;;;;;39.60;18.30;;;;;;;-4.92;88.01;97821.41;102262;1329;138357;-79
2021/12/28 05:37:44;;;;;;;36.90;18.40;;;;;;;-4.94;87.89;97821.59;102537;1328;24388;-79
2021/12/28 05:40:13;;;;;;;36.50;18.30;;;;;;;-4.94;87.82;97820.70;101928;1331;138908;-79
2021/12/28 05:42:39;;;;;;;33.40;16.30;;;;;;;-4.94;88.05;97820.93;102694;1332;25358;-79
2021/12/28 05:45:06;;;;;;;35.30;16.10;;;;;;;-4.96;87.83;97822.50;102519;1327;22721;-79
2021/12/28 05:47:33;;;;;;;37.40;16.10;;;;;;;-4.98;88.14;97825.52;102439;1326;137744;-79
2021/12/28 05:50:00;;;;;;;31.20;14.20;;;;;;;-4.98;88.06;97823.75;102541;1333;22599;-80
2021/12/28 05:52:27;;;;;;;34.90;17.10;;;;;;;-5.00;88.17;97822.59;102404;1327;138199;-79
2021/12/28 05:54:53;;;;;;;38.20;17.00;;;;;;;-5.03;87.85;97817.44;102385;1327;23487;-79
2021/12/28 05:57:22;;;;;;;33.60;17.20;;;;;;;-5.02;88.14;97821.09;102407;1327;139102;-79
2021/12/28 05:59:48;;;;;;;34.90;15.30;;;;;;;-4.99;88.48;97823.33;102643;1327;24311;-79
2021/12/28 06:02:15;;;;;;;33.20;14.10;;;;;;;-4.97;88.14;97815.52;102302;1332;22671;-79
2021/12/28 06:04:41;;;;;;;35.30;16.80;;;;;;;-4.97;88.30;97812.58;102591;1327;138497;-80
2021/12/28 06:07:08;;;;;;;35.20;16.20;;;;;;;-4.97;88.21;97811.64;102573;1330;22674;-79
2021/12/28 06:09:34;;;;;;;41.10;19.30;;;;;;;-4.96;88.41;97808.14;102805;1325;138335;-80
2021/12/28 06:12:00;;;;;;;35.30;16.80;;;;;;;-4.93;88.28;97810.55;102612;1327;22757;-80
2021/12/28 06:14:26;;;;;;;36.30;17.00;;;;;;;-4.90;88.25;97815.75;102599;1333;23263;-80
2021/12/28 06:16:53;;;;;;;35.70;16.00;;;;;;;-4.85;88.28;97823.33;102555;1332;138857;-80
2021/12/28 06:19:19;;;;;;;28.40;14.30;;;;;;;-4.82;88.36;97831.96;102398;1327;22764;-80
2021/12/28 06:21:46;;;;;;;34.60;16.90;;;;;;;-4.81;87.83;97833.48;102340;1327;138587;-80
2021/12/28 06:24:12;;;;;;;37.70;15.50;;;;;;;-4.84;87.78;97827.23;102708;1332;22692;-80
2021/12/28 06:26:38;;;;;;;38.40;16.30;;;;;;;-4.87;88.06;97821.75;102735;1327;22581;-80
2021/12/28 06:29:06;;;;;;;37.90;18.40;;;;;;;-4.92;87.87;97813.84;102614;1330;139721;-80
2021/12/28 06:31:34;;;;;;;35.20;17.20;;;;;;;-4.94;87.58;97807.63;102651;1332;25562;-80
2021/12/28 06:34:03;;;;;;;36.00;15.80;;;;;;;-4.94;87.80;97814.20;102617;1327;138946;-80
2021/12/28 06:36:30;;;;;;;30.10;13.50;;;;;;;-4.95;88.25;97825.92;102359;1327;22669;-80
2021/12/28 06:38:57;;;;;;;32.60;16.00;;;;;;;-4.94;87.94;97825.19;102221;1328;25298;-80
2021/12/28 06:41:24;;;;;;;33.80;14.40;;;;;;;-4.96;87.97;97828.91;102187;1331;138553;-79
2021/12/28 06:43:50;;;;;;;30.40;13.70;;;;;;;-4.97;88.16;97830.02;102757;1331;22742;-79
2021/12/28 06:46:16;;;;;;;39.00;17.10;;;;;;;-4.95;88.17;97824.23;102526;1333;138900;-80
2021/12/28 06:48:43;;;;;;;30.80;14.60;;;;;;;-4.95;88.04;97824.20;102630;1328;22829;-80
2021/12/28 06:51:11;;;;;;;31.70;15.50;;;;;;;-4.93;87.79;97824.05;102676;1332;22659;-79
2021/12/28 06:53:41;;;;;;;27.90;15.00;;;;;;;-4.95;87.83;97828.98;102306;1327;138308;-79
2021/12/28 06:56:08;;;;;;;30.50;14.30;;;;;;;-4.96;87.96;97830.17;102634;1327;25349;-79
2021/12/28 06:58:35;;;;;;;33.30;14.40;;;;;;;-4.96;88.14;97829.99;101971;1333;138054;-79
2021/12/28 07:01:01;;;;;;;33.70;16.20;;;;;;;-4.95;88.36;97827.59;102949;1327;25511;-80
2021/12/28 07:03:27;;;;;;;32.10;15.90;;;;;;;-4.93;88.22;97830.92;102678;1332;138694;-80
2021/12/28 07:05:53;;;;;;;37.80;17.60;;;;;;;-4.90;88.03;97833.27;102656;1332;24226;-80
2021/12/28 07:08:19;;;;;;;31.20;15.90;;;;;;;-4.85;87.94;97835.77;102610;1328;24268;-79
2021/12/28 07:10:46;;;;;;;32.50;14.90;;;;;;;-4.82;88.19;97829.20;102545;1326;137880;-79
2021/12/28 07:13:12;;;;;;;33.60;15.60;;;;;;;-4.80;88.21;97829.72;102631;1333;22677;-79
2021/12/28 07:15:38;;;;;;;33.70;15.30;;;;;;;-4.78;88.06;97831.76;102448;1332;138424;-79
2021/12/28 07:18:05;;;;;;;33.60;15.60;;;;;;;-4.78;88.01;97831.77;102480;1327;22747;-79
2021/12/28 07:20:31;;;;;;;27.70;13.40;;;;;;;-4.76;88.05;97830.30;102537;1327;24466;-79
2021/12/28 07:22:57;;;;;;;31.20;15.50;;;;;;;-4.75;87.71;97831.23;102523;1327;138562;-79
2021/12/28 07:25:24;;;;;;;28.60;14.80;;;;;;;-4.74;87.92;97831.25;102661;1331;24341;-79
2021/12/28 07:27:51;;;;;;;32.10;14.20;;;;;;;-4.73;87.76;97831.68;102535;1327;138621;-79
2021/12/28 07:30:18;;;;;;;32.20;15.20;;;;;;;-4.73;87.71;97835.14;102429;1327;24627;-79
2021/12/28 07:32:44;;;;;;;32.20;15.10;;;;;;;-4.70;88.16;97838.16;102705;1330;22759;-79
2021/12/28 07:35:11;;;;;;;28.70;13.00;;;;;;;-4.67;87.89;97842.17;102975;1330;138239;-80
2021/12/28 07:37:39;;;;;;;36.90;17.30;;;;;;;-4.69;88.27;97831.66;102293;1331;22618;-80
2021/12/28 07:40:07;;;;;;;36.90;17.00;;;;;;;-4.62;88.03;97835.00;102889;1330;138604;-79
2021/12/28 07:42:35;;;;;;;32.50;14.80;;;;;;;-4.58;88.16;97833.32;103089;1327;23996;-79
2021/12/28 07:45:09;;;;;;;34.70;15.50;;;;;;;-4.53;87.85;97840.14;102953;1327;25386;-80
2021/12/28 07:47:36;;;;;;;35.80;16.40;;;;;;;-4.51;87.72;97837.81;102687;1327;137722;-80
2021/12/28 07:50:06;;;;;;;30.40;13.80;;;;;;;-4.49;87.49;97841.87;102659;1326;22596;-79
2021/12/28 07:52:32;;;;;;;24.30;11.60;;;;;;;-4.49;87.40;97842.16;102279;1327;138375;-80
2021/12/28 07:54:58;;;;;;;24.50;11.80;;;;;;;-4.49;87.40;97839.55;102689;1327;24370;-79
2021/12/28 07:57:25;;;;;;;28.90;14.60;;;;;;;-4.53;87.33;97835.31;102484;1331;138725;-78
2021/12/28 07:59:51;;;;;;;31.20;16.00;;;;;;;-4.55;87.31;97833.83;102628;1328;23944;-78
2021/12/28 08:02:17;;;;;;;28.00;13.60;;;;;;;-4.53;87.52;97835.32;102480;1332;22685;-79
2021/12/28 08:04:43;;;;;;;31.80;15.40;;;;;;;-4.50;87.29;97840.54;102344;1327;138169;-78
2021/12/28 08:07:09;;;;;;;30.80;14.30;;;;;;;-4.46;87.16;97840.95;102619;1327;23388;-76
2021/12/28 08:09:35;;;;;;;30.20;14.20;;;;;;;-4.44;87.03;97837.39;102417;1327;138050;-76
2021/12/28 08:12:03;;;;;;;27.50;15.50;;;;;;;-4.44;87.30;97832.80;102365;1327;25327;-80
2021/12/28 08:14:29;;;;;;;34.70;16.70;;;;;;;-4.43;87.45;97830.80;99505;1330;5094540;-79
2021/12/28 08:16:55;;;;;;;32.50;16.50;;;;;;;-4.41;87.47;97828.70;102582;1327;139122;-79
2021/12/28 08:19:21;;;;;;;31.40;15.10;;;;;;;-4.39;86.94;97826.40;102137;1328;23159;-79
2021/12/28 08:21:48;;;;;;;27.90;14.30;;;;;;;-4.36;86.97;97830.89;102472;1330;138181;-84
2021/12/28 08:24:14;;;;;;;30.20;14.30;;;;;;;-4.32;87.29;97832.35;102031;1327;22617;-78
2021/12/28 08:26:41;;;;;;;30.70;17.00;;;;;;;-4.31;86.99;97834.86;101915;1330;22613;-78
2021/12/28 08:29:07;;;;;;;38.90;15.00;;;;;;;-4.29;86.76;97839.83;102223;1328;138000;-78
2021/12/28 08:31:35;;;;;;;38.80;17.50;;;;;;;-4.26;87.06;97841.66;102420;1330;25326;-78
2021/12/28 08:34:02;;;;;;;32.10;17.00;;;;;;;-4.21;86.92;97837.39;102237;1327;138734;-78
2021/12/28 08:36:29;;;;;;;33.00;16.80;;;;;;;-4.17;86.65;97833.04;102243;1327;22801;-78
2021/12/28 08:38:55;;;;;;;38.90;16.60;;;;;;;-4.09;87.16;97833.89;102490;1327;22586;-81
2021/12/28 08:41:22;;;;;;;32.50;16.70;;;;;;;-4.00;86.93;97827.77;101982;1329;138055;-79
2021/12/28 08:43:48;;;;;;;31.40;16.30;;;;;;;-3.93;86.74;97823.20;102548;1327;24744;-79
2021/12/28 08:46:15;;;;;;;35.30;17.20;;;;;;;-3.91;86.67;97821.14;101933;1332;137974;-79
2021/12/28 08:48:42;;;;;;;24.00;12.60;;;;;;;-3.88;86.88;97817.52;102648;1327;22626;-79
2021/12/28 08:51:09;;;;;;;31.50;15.00;;;;;;;-3.88;86.43;97811.58;102810;1331;23945;-79
2021/12/28 08:53:35;;;;;;;37.80;18.10;;;;;;;-3.87;86.18;97803.05;102502;1327;138345;-79
2021/12/28 08:56:01;;;;;;;34.30;16.50;;;;;;;-3.86;86.18;97800.56;102651;1329;24279;-79
2021/12/28 08:58:28;;;;;;;27.80;14.40;;;;;;;-3.81;86.13;97798.58;103048;1326;138200;-79
2021/12/28 09:00:54;;;;;;;25.90;13.10;;;;;;;-3.75;86.08;97795.32;102810;1328;22846;-79
2021/12/28 09:03:20;;;;;;;30.50;15.20;;;;;;;-3.74;85.80;97797.35;102934;1327;138670;-79
2021/12/28 09:05:46;;;;;;;32.00;15.80;;;;;;;-3.74;85.95;97800.10;103067;1327;22606;-79
2021/12/28 09:08:16;;;;;;;31.30;15.70;;;;;;;-3.73;85.66;97796.34;103105;1327;24434;-79
2021/12/28 09:10:43;;;;;;;36.70;16.50;;;;;;;-3.77;85.27;97784.51;103292;1330;138749;-79
2021/12/28 09:13:11;;;;;;;32.30;15.80;;;;;;;-3.78;84.87;97772.48;103523;1325;22615;-79
2021/12/28 09:15:37;;;;;;;29.60;14.00;;;;;;;-3.75;85.29;97771.13;103192;1327;138430;-79
2021/12/28 09:18:04;;;;;;;23.40;12.60;;;;;;;-3.71;85.23;97778.58;102895;1327;22750;-79
2021/12/28 09:20:30;;;;;;;26.50;12.70;;;;;;;-3.67;85.07;97778.46;102713;1327;22613;-79
2021/12/28 09:22:57;;;;;;;27.40;14.10;;;;;;;-3.65;85.19;97775.00;102173;1327;138090;-79
2021/12/28 09:25:23;;;;;;;29.10;15.30;;;;;;;-3.63;85.19;97773.19;103374;1331;23259;-79
2021/12/28 09:27:51;;;;;;;32.40;16.90;;;;;;;-3.62;84.98;97771.49;103585;1327;138701;-80
2021/12/28 09:30:17;;;;;;;34.00;16.90;;;;;;;-3.58;85.23;97777.27;102259;1327;24432;-77
2021/12/28 09:32:44;;;;;;;33.20;16.80;;;;;;;-3.37;86.44;97783.64;102367;1332;24243;-79
2021/12/28 09:35:11;;;;;;;27.90;15.20;;;;;;;-3.20;85.37;97794.55;102303;1327;138310;-79
2021/12/28 09:37:38;;;;;;;33.10;17.60;;;;;;;-3.13;84.78;97793.15;102956;1331;22598;-79
2021/12/28 09:40:09;;;;;;;33.70;16.50;;;;;;;-3.06;85.04;97791.48;102259;1332;139048;-79
2021/12/28 09:42:36;;;;;;;35.00;16.50;;;;;;;-2.96;84.88;97789.79;102205;1327;22609;-79
2021/12/28 09:45:04;;;;;;;28.10;15.10;;;;;;;-2.90;84.23;97789.45;102304;1333;24265;-79
2021/12/28 09:47:31;;;;;;;31.90;15.90;;;;;;;-2.90;84.12;97788.42;102295;1331;138078;-79
2021/12/28 09:49:57;;;;;;;37.40;16.60;;;;;;;-2.94;83.92;97784.21;102179;1330;22681;-80
2021/12/28 09:52:24;;;;;;;32.30;16.80;;;;;;;-2.94;83.64;97787.95;101827;1331;138428;-80
2021/12/28 09:54:50;;;;;;;29.70;16.40;;;;;;;-2.93;83.57;97784.31;102307;1327;22640;-80
2021/12/28 09:57:18;;;;;;;34.00;17.50;;;;;;;-2.93;83.54;97785.88;101862;1328;137934;-79
2021/12/28 09:59:46;;;;;;;28.20;14.90;;;;;;;-2.89;83.56;97796.23;102059;1328;23059;-79
2021/12/28 10:02:13;;;;;;;30.10;15.20;;;;;;;-2.85;83.78;97799.05;102507;1331;22666;-79
2021/12/28 10:05:05;;;;;;;31.20;16.70;;;;;;;-2.83;83.28;97796.73;102314;1327;137947;-80
2021/12/28 10:07:34;;;;;;;33.80;16.80;;;;;;;-2.86;83.32;97797.31;102152;1332;22733;-82
2021/12/28 10:10:01;;;;;;;;;;;;;;;-2.89;83.00;97804.66;102435;1330;138691;-80
2021/12/28 10:12:33;;;;;;;35.50;17.10;;;;;;;-2.93;83.34;97803.98;102397;1330;24277;-80
2021/12/28 10:15:03;;;;;;;33.20;17.40;;;;;;;-2.93;83.07;97797.84;102404;1332;25441;-80
2021/12/28 10:17:32;;;;;;;30.40;15.80;;;;;;;-2.93;83.00;97792.67;102415;1330;138057;-79
2021/12/28 10:20:01;;;;;;;34.20;17.40;;;;;;;-2.93;82.88;97777.59;102192;1333;22596;-80
2021/12/28 10:22:36;;;;;;;31.90;16.60;;;;;;;-2.93;82.95;97765.12;102273;1329;138200;-80
2021/12/28 10:25:02;;;;;;;33.70;18.50;;;;;;;-2.94;82.86;97754.09;102011;1330;30953;-80
2021/12/28 10:27:31;;;;;;;30.90;16.10;;;;;;;-2.94;83.27;97746.13;102217;1332;138050;-80
2021/12/28 10:30:23;;;;;;;35.80;17.60;;;;;;;-2.92;83.16;97736.88;102277;1329;22596;-79
2021/12/28 10:32:57;;;;;;;38.00;20.00;;;;;;;-2.76;83.85;97726.37;102217;1330;25548;-80
2021/12/28 10:35:28;;;;;;;38.70;19.20;;;;;;;-2.70;82.32;97714.30;102411;1331;138572;-80
2021/12/28 10:38:17;;;;;;;41.50;19.90;;;;;;;-2.63;82.53;97703.06;102378;1332;22848;-79
2021/12/28 10:40:50;;;;;;;29.90;14.30;;;;;;;-2.53;82.53;97692.23;102330;1327;137735;-79
2021/12/28 10:43:19;;;;;;;37.60;19.50;;;;;;;-2.49;81.71;97682.59;102459;1328;22595;-79
2021/12/28 10:46:06;;;;;;;42.10;20.00;;;;;;;-2.54;81.41;97682.86;102206;1331;138218;-79
2021/12/28 10:48:38;;;;;;;43.80;21.40;;;;;;;-2.59;80.98;97689.83;102477;1330;25384;-79
2021/12/28 10:51:23;;;;;;;48.50;22.70;;;;;;;-2.66;80.82;97701.95;102291;1328;138907;-79
2021/12/28 10:54:15;;;;;;;50.20;23.10;;;;;;;-2.68;81.29;97710.16;102393;1333;24323;-81
2021/12/28 10:56:52;;;;;;;47.20;23.50;;;;;;;-2.62;81.68;97714.35;102328;1328;24288;-80
2021/12/28 10:59:24;;;;;;;49.30;23.10;;;;;;;-2.48;81.86;97705.60;102091;1331;138602;-80
2021/12/28 11:01:51;;;;;;;47.00;21.50;;;;;;;-2.39;81.76;97708.38;102132;1332;25332;-80
2021/12/28 11:04:18;;;;;;;41.70;21.20;;;;;;;-2.37;81.23;97702.67;102350;1325;137938;-80
2021/12/28 11:06:50;;;;;;;39.70;20.30;;;;;;;-2.31;81.07;97693.80;102616;1327;22713;-80
2021/12/28 11:09:25;;;;;;;50.30;25.10;;;;;;;-2.30;80.99;97690.83;102455;1331;139993;-80
2021/12/28 11:11:53;;;;;;;51.00;24.10;;;;;;;-2.34;81.05;97687.49;101957;1333;22900;-80
2021/12/28 11:14:23;;;;;;;49.70;24.80;;;;;;;-2.31;81.25;97680.20;102479;1330;24224;-80
2021/12/28 11:16:56;;;;;;;52.20;23.50;;;;;;;-2.29;81.04;97678.41;102400;1330;139389;-80